CDT,Max TemperatureF,Mean TemperatureF,Min TemperatureF,Max Dew PointF,MeanDew PointF,Min DewpointF,Max Humidity, Mean Humidity, Min Humidity, Max Sea Level PressureIn, Mean Sea Level PressureIn, Min Sea Level PressureIn, Max VisibilityMiles, Mean VisibilityMiles, Min VisibilityMiles, Max Wind SpeedMPH, Mean Wind SpeedMPH, Max Gust SpeedMPH,PrecipitationIn, CloudCover, Events, WindDirDegrees
2013-10-1,77,62,48,55,49,36,93,59,22,30.00,29.83,29.71,10,10,10,13,6,18,0.00,0,,259
2013-10-2,77,59,41,50,45,37,100,67,26,30.11,30.00,29.86,10,10,10,10,2,,0.00,1,,132
2013-10-3,69,62,55,63,57,50,100,92,53,29.95,29.87,29.80,10,9,2,14,3,28,0.00,6,Rain-Thunderstorm,104
2013-10-4,60,58,55,61,58,55,100,95,88,29.98,29.92,29.85,10,7,1,16,4,23,0.00,8,Rain-Thunderstorm,93
2013-10-5,69,60,50,64,56,41,100,87,63,29.91,29.81,29.74,10,10,2,13,5,16,0.00,7,Rain-Thunderstorm,163
2013-10-6,53,47,41,46,42,39,100,80,58,29.79,29.74,29.70,10,10,3,13,1,17,0.00,6,Rain,296
2013-10-7,68,55,42,50,45,36,100,78,32,30.04,29.93,29.80,10,10,2,13,5,20,0.00,2,,331
2013-10-8,77,60,42,50,45,41,100,61,29,30.05,30.01,29.95,10,10,10,13,3,23,0.00,0,,173
2013-10-9,75,64,53,52,48,45,82,61,38,30.13,30.08,30.02,10,10,10,10,4,,0.00,0,,160
2013-10-10,73,60,48,54,49,46,94,73,38,30.12,30.05,29.96,10,10,10,12,2,17,0.00,0,,145
2013-10-11,75,64,53,57,52,50,94,68,47,29.97,29.86,29.77,10,10,10,20,6,32,0.00,2,,152
2013-10-12,69,56,42,55,43,36,87,59,39,30.19,29.96,29.77,10,10,10,15,7,24,0.00,2,,265
2013-10-13,60,48,37,43,37,32,100,71,34,30.43,30.36,30.20,10,10,3,12,2,,0.00,0,,333
2013-10-14,59,47,35,45,40,36,100,76,51,30.43,30.27,30.01,10,9,0,17,4,23,0.00,2,Fog-Rain,126
2013-10-15,57,52,48,54,47,43,94,87,67,30.01,29.79,29.73,10,9,5,13,8,18,0.00,8,Rain,180
2013-10-16,51,43,35,48,43,36,100,87,71,29.94,29.88,29.76,10,9,1,16,6,23,0.00,7,,317
2013-10-17,55,44,33,45,37,34,100,80,44,29.93,29.84,29.78,10,7,0,9,1,17,0.00,4,Fog,269
2013-10-18,51,43,35,43,36,30,100,74,44,29.96,29.90,29.81,10,10,4,15,8,24,0.00,5,Rain,304
2013-10-19,48,42,35,41,35,32,100,83,62,29.88,29.78,29.71,10,10,5,20,2,25,0.00,4,Rain,270
2013-10-20,51,40,30,45,36,30,100,87,66,29.84,29.75,29.64,10,10,2,18,4,26,0.00,6,Rain,204
2013-10-21,39,34,30,34,27,23,87,70,56,29.97,29.93,29.84,10,10,10,16,10,26,0.00,6,,296
2013-10-22,42,33,24,32,29,23,93,83,61,30.02,29.99,29.95,10,10,10,12,2,17,0.00,3,,319
2013-10-23,41,36,32,32,29,25,93,77,53,30.07,30.02,29.99,10,10,2,15,5,18,0.00,8,Snow,313
2013-10-24,42,37,32,28,26,21,87,66,46,30.32,30.21,30.07,10,10,10,13,8,18,0.00,6,,316
2013-10-25,53,42,30,36,31,27,100,67,43,30.34,30.14,29.81,10,10,10,18,4,32,0.00,2,,233
2013-10-26,53,43,33,37,32,28,87,62,47,30.09,29.97,29.77,10,10,10,20,12,29,0.00,4,,305
2013-10-27,60,45,30,37,32,28,100,68,34,30.10,29.95,29.82,10,10,7,10,2,20,0.00,0,,244
2013-10-28,42,38,35,32,29,27,81,67,57,30.42,30.33,30.11,10,10,10,12,6,22,0.00,4,,85
2013-10-29,48,42,35,36,32,28,81,72,58,30.40,30.26,30.09,10,10,10,10,5,,0.00,5,,117
2013-10-30,53,48,42,52,45,36,100,87,76,30.09,29.92,29.70,10,7,1,9,2,,0.00,8,Rain,142
2013-10-31,53,47,41,54,45,36,100,91,76,29.68,29.48,29.38,10,7,0,13,5,21,0.00,8,Fog-Rain,288